sensor_id;sensor_type;location;lat;lon;timestamp;pressure;altitude;pressure_sealevel;temperature;humidity
3444;BME280;1736;52.068;6.968;2024-03-02T00:00:28;99759.00;;;6.96;83.36
3444;BME280;1736;52.068;6.968;2024-03-02T00:02:54;99757.94;;;6.87;83.33
3444;BME280;1736;52.068;6.968;2024-03-02T00:05:22;99758.16;;;6.95;83.38
3444;BME280;1736;52.068;6.968;2024-03-02T00:07:53;99752.03;;;6.95;83.62
3444;BME280;1736;52.068;6.968;2024-03-02T00:10:22;99774.06;;;7.05;83.71
3444;BME280;1736;52.068;6.968;2024-03-02T00:12:55;99768.50;;;7.08;83.22
3444;BME280;1736;52.068;6.968;2024-03-02T00:15:40;99763.38;;;7.06;83.68
3444;BME280;1736;52.068;6.968;2024-03-02T00:18:08;99760.25;;;7.01;83.29
3444;BME280;1736;52.068;6.968;2024-03-02T00:20:36;99755.91;;;7.11;83.35
3444;BME280;1736;52.068;6.968;2024-03-02T00:23:04;99759.03;;;7.05;83.75
3444;BME280;1736;52.068;6.968;2024-03-02T00:25:37;99754.28;;;7.20;83.40
3444;BME280;1736;52.068;6.968;2024-03-02T00:28:05;99738.91;;;7.25;82.93
3444;BME280;1736;52.068;6.968;2024-03-02T00:30:51;99741.44;;;7.26;83.13
3444;BME280;1736;52.068;6.968;2024-03-02T00:33:19;99753.66;;;7.27;82.52
3444;BME280;1736;52.068;6.968;2024-03-02T00:35:46;99748.19;;;7.19;82.79
3444;BME280;1736;52.068;6.968;2024-03-02T00:38:13;99751.19;;;7.15;83.04
3444;BME280;1736;52.068;6.968;2024-03-02T00:40:40;99752.16;;;7.14;82.61
3444;BME280;1736;52.068;6.968;2024-03-02T00:43:16;99736.91;;;7.17;82.76
3444;BME280;1736;52.068;6.968;2024-03-02T00:45:55;99749.72;;;7.01;83.29
3444;BME280;1736;52.068;6.968;2024-03-02T00:48:22;99747.25;;;7.09;83.23
3444;BME280;1736;52.068;6.968;2024-03-02T00:50:50;99734.47;;;7.05;83.53
3444;BME280;1736;52.068;6.968;2024-03-02T00:53:23;99728.47;;;7.03;83.56
3444;BME280;1736;52.068;6.968;2024-03-02T00:55:50;99865.91;;;7.00;83.75
3444;BME280;1736;52.068;6.968;2024-03-02T00:58:17;99763.75;;;7.02;83.59
3444;BME280;1736;52.068;6.968;2024-03-02T01:00:43;99732.03;;;6.92;84.27
3444;BME280;1736;52.068;6.968;2024-03-02T01:03:12;99715.56;;;7.00;84.35
3444;BME280;1736;52.068;6.968;2024-03-02T01:05:41;99722.75;;;6.98;84.48
3444;BME280;1736;52.068;6.968;2024-03-02T01:08:08;99745.22;;;7.13;84.43
3444;BME280;1736;52.068;6.968;2024-03-02T01:10:35;99753.97;;;7.13;84.61
3444;BME280;1736;52.068;6.968;2024-03-02T01:13:01;99748.69;;;7.13;84.67
3444;BME280;1736;52.068;6.968;2024-03-02T01:15:28;99735.97;;;7.18;84.73
3444;BME280;1736;52.068;6.968;2024-03-02T01:17:55;99736.47;;;7.12;84.42
3444;BME280;1736;52.068;6.968;2024-03-02T01:20:23;99748.63;;;7.24;84.22
3444;BME280;1736;52.068;6.968;2024-03-02T01:22:50;99745.28;;;7.22;84.24
3444;BME280;1736;52.068;6.968;2024-03-02T01:25:17;99722.78;;;7.18;84.41
3444;BME280;1736;52.068;6.968;2024-03-02T01:27:44;99724.44;;;7.19;83.85
3444;BME280;1736;52.068;6.968;2024-03-02T01:30:11;99729.59;;;7.21;84.36
3444;BME280;1736;52.068;6.968;2024-03-02T01:32:37;99738.06;;;7.24;84.04
3444;BME280;1736;52.068;6.968;2024-03-02T01:35:05;99719.09;;;7.10;84.43
3444;BME280;1736;52.068;6.968;2024-03-02T01:37:33;99709.41;;;7.10;84.39
3444;BME280;1736;52.068;6.968;2024-03-02T01:40:00;99706.28;;;7.05;84.48
3444;BME280;1736;52.068;6.968;2024-03-02T01:42:27;99717.06;;;6.93;85.11
3444;BME280;1736;52.068;6.968;2024-03-02T01:44:54;99714.97;;;6.96;85.72
3444;BME280;1736;52.068;6.968;2024-03-02T01:47:21;99705.72;;;6.81;85.55
3444;BME280;1736;52.068;6.968;2024-03-02T01:49:47;99706.56;;;6.82;86.06
3444;BME280;1736;52.068;6.968;2024-03-02T01:52:15;99699.56;;;6.92;85.73
3444;BME280;1736;52.068;6.968;2024-03-02T01:54:42;99714.47;;;7.02;86.20
3444;BME280;1736;52.068;6.968;2024-03-02T01:57:09;99714.06;;;7.07;86.07
3444;BME280;1736;52.068;6.968;2024-03-02T01:59:36;99705.47;;;7.05;85.80
3444;BME280;1736;52.068;6.968;2024-03-02T02:02:02;99697.63;;;7.14;85.33
3444;BME280;1736;52.068;6.968;2024-03-02T02:04:29;99698.06;;;7.19;85.28
3444;BME280;1736;52.068;6.968;2024-03-02T02:06:56;99698.56;;;7.13;85.69
3444;BME280;1736;52.068;6.968;2024-03-02T02:09:42;99696.09;;;7.21;84.93
3444;BME280;1736;52.068;6.968;2024-03-02T02:12:26;99696.09;;;7.21;85.29
3444;BME280;1736;52.068;6.968;2024-03-02T02:14:53;99693.22;;;7.24;84.73
3444;BME280;1736;52.068;6.968;2024-03-02T02:17:20;99701.00;;;7.05;85.41
3444;BME280;1736;52.068;6.968;2024-03-02T02:19:47;99689.50;;;7.06;85.62
3444;BME280;1736;52.068;6.968;2024-03-02T02:22:15;99679.47;;;7.00;85.34
3444;BME280;1736;52.068;6.968;2024-03-02T02:24:42;99681.78;;;6.94;85.66
3444;BME280;1736;52.068;6.968;2024-03-02T02:27:09;99682.72;;;7.13;85.60
3444;BME280;1736;52.068;6.968;2024-03-02T02:29:36;99683.25;;;7.07;85.61
3444;BME280;1736;52.068;6.968;2024-03-02T02:32:03;99689.09;;;7.11;85.72
3444;BME280;1736;52.068;6.968;2024-03-02T02:34:30;99683.56;;;7.14;85.42
3444;BME280;1736;52.068;6.968;2024-03-02T02:36:56;99696.69;;;7.25;85.70
3444;BME280;1736;52.068;6.968;2024-03-02T02:39:24;99684.81;;;7.40;85.53
3444;BME280;1736;52.068;6.968;2024-03-02T02:41:51;99685.91;;;7.37;85.69
3444;BME280;1736;52.068;6.968;2024-03-02T02:44:17;99680.38;;;7.40;84.71
3444;BME280;1736;52.068;6.968;2024-03-02T02:46:44;99677.56;;;7.32;84.98
3444;BME280;1736;52.068;6.968;2024-03-02T02:49:10;99693.66;;;7.29;85.27
3444;BME280;1736;52.068;6.968;2024-03-02T02:51:37;99689.59;;;7.25;85.21
3444;BME280;1736;52.068;6.968;2024-03-02T02:54:03;99682.84;;;7.32;85.12
3444;BME280;1736;52.068;6.968;2024-03-02T02:56:31;99680.44;;;7.29;85.21
3444;BME280;1736;52.068;6.968;2024-03-02T02:58:58;99684.69;;;7.41;84.99
3444;BME280;1736;52.068;6.968;2024-03-02T03:01:25;99676.75;;;7.41;84.94
3444;BME280;1736;52.068;6.968;2024-03-02T03:03:52;99682.72;;;7.34;84.93
3444;BME280;1736;52.068;6.968;2024-03-02T03:06:18;99686.34;;;7.42;84.78
3444;BME280;1736;52.068;6.968;2024-03-02T03:08:45;99686.50;;;7.50;84.76
3444;BME280;1736;52.068;6.968;2024-03-02T03:11:11;99684.22;;;7.57;84.95
3444;BME280;1736;52.068;6.968;2024-03-02T03:13:39;99672.09;;;7.54;84.27
3444;BME280;1736;52.068;6.968;2024-03-02T03:16:06;99697.97;;;7.60;84.29
3444;BME280;1736;52.068;6.968;2024-03-02T03:18:32;99689.19;;;7.60;84.06
3444;BME280;1736;52.068;6.968;2024-03-02T03:20:59;99686.28;;;7.63;84.53
3444;BME280;1736;52.068;6.968;2024-03-02T03:23:25;99685.09;;;7.76;84.38
3444;BME280;1736;52.068;6.968;2024-03-02T03:25:52;99680.88;;;7.64;84.31
3444;BME280;1736;52.068;6.968;2024-03-02T03:28:19;99678.13;;;7.66;84.32
3444;BME280;1736;52.068;6.968;2024-03-02T03:30:47;99687.38;;;7.51;84.59
3444;BME280;1736;52.068;6.968;2024-03-02T03:33:13;99689.31;;;7.49;84.75
3444;BME280;1736;52.068;6.968;2024-03-02T03:35:40;99690.00;;;7.51;84.92
3444;BME280;1736;52.068;6.968;2024-03-02T03:38:06;99680.13;;;7.43;84.39
3444;BME280;1736;52.068;6.968;2024-03-02T03:40:33;99677.88;;;7.39;84.28
3444;BME280;1736;52.068;6.968;2024-03-02T03:42:59;99675.13;;;7.20;85.12
3444;BME280;1736;52.068;6.968;2024-03-02T03:45:26;99674.19;;;7.00;85.12
3444;BME280;1736;52.068;6.968;2024-03-02T03:47:54;99679.88;;;6.96;86.06
3444;BME280;1736;52.068;6.968;2024-03-02T03:50:21;99669.13;;;6.88;86.25
3444;BME280;1736;52.068;6.968;2024-03-02T03:52:47;99680.56;;;6.77;86.09
3444;BME280;1736;52.068;6.968;2024-03-02T03:55:14;99694.34;;;6.81;87.33
3444;BME280;1736;52.068;6.968;2024-03-02T03:57:41;99683.13;;;6.88;86.87
3444;BME280;1736;52.068;6.968;2024-03-02T04:00:08;99685.13;;;6.75;86.75
3444;BME280;1736;52.068;6.968;2024-03-02T04:02:36;99697.34;;;6.76;87.06
3444;BME280;1736;52.068;6.968;2024-03-02T04:05:05;99692.31;;;6.73;87.20
3444;BME280;1736;52.068;6.968;2024-03-02T04:07:35;99692.31;;;6.73;87.63
3444;BME280;1736;52.068;6.968;2024-03-02T04:10:06;99693.63;;;6.79;87.80
3444;BME280;1736;52.068;6.968;2024-03-02T04:12:34;99708.50;;;6.80;87.58
3444;BME280;1736;52.068;6.968;2024-03-02T04:15:00;99700.59;;;6.80;87.69
3444;BME280;1736;52.068;6.968;2024-03-02T04:17:31;99701.41;;;6.80;87.77
3444;BME280;1736;52.068;6.968;2024-03-02T04:19:58;99706.69;;;6.80;87.86
3444;BME280;1736;52.068;6.968;2024-03-02T04:22:26;99709.56;;;6.77;87.74
3444;BME280;1736;52.068;6.968;2024-03-02T04:24:53;99708.53;;;6.69;87.64
3444;BME280;1736;52.068;6.968;2024-03-02T04:27:20;99714.72;;;6.58;87.68
3444;BME280;1736;52.068;6.968;2024-03-02T04:29:46;99714.25;;;6.53;88.57
3444;BME280;1736;52.068;6.968;2024-03-02T04:32:13;99713.66;;;6.50;88.46
3444;BME280;1736;52.068;6.968;2024-03-02T04:34:39;99708.13;;;6.53;88.69
3444;BME280;1736;52.068;6.968;2024-03-02T04:37:06;99726.22;;;6.57;89.27
3444;BME280;1736;52.068;6.968;2024-03-02T04:39:35;99730.66;;;6.57;89.37
3444;BME280;1736;52.068;6.968;2024-03-02T04:42:02;99719.31;;;6.45;88.73
3444;BME280;1736;52.068;6.968;2024-03-02T04:44:29;99721.34;;;6.42;89.07
3444;BME280;1736;52.068;6.968;2024-03-02T04:46:55;99719.72;;;6.30;89.38
3444;BME280;1736;52.068;6.968;2024-03-02T04:49:23;99717.81;;;6.32;89.26
3444;BME280;1736;52.068;6.968;2024-03-02T04:51:49;99710.38;;;6.26;89.49
3444;BME280;1736;52.068;6.968;2024-03-02T04:54:16;99732.94;;;6.19;90.08
3444;BME280;1736;52.068;6.968;2024-03-02T04:56:44;99723.72;;;6.13;90.76
3444;BME280;1736;52.068;6.968;2024-03-02T04:59:15;99713.09;;;6.04;90.70
3444;BME280;1736;52.068;6.968;2024-03-02T05:01:41;99721.22;;;6.01;90.72
3444;BME280;1736;52.068;6.968;2024-03-02T05:04:08;99727.44;;;6.11;91.38
3444;BME280;1736;52.068;6.968;2024-03-02T05:06:36;99737.16;;;5.99;91.53
3444;BME280;1736;52.068;6.968;2024-03-02T05:09:03;99721.97;;;5.92;91.46
3444;BME280;1736;52.068;6.968;2024-03-02T05:11:30;99727.59;;;5.87;92.13
3444;BME280;1736;52.068;6.968;2024-03-02T05:14:15;99725.81;;;5.88;92.32
3444;BME280;1736;52.068;6.968;2024-03-02T05:16:41;99742.69;;;5.85;92.53
3444;BME280;1736;52.068;6.968;2024-03-02T05:19:08;99747.94;;;5.85;92.59
3444;BME280;1736;52.068;6.968;2024-03-02T05:21:35;99739.56;;;5.80;92.56
3444;BME280;1736;52.068;6.968;2024-03-02T05:24:01;99733.78;;;5.75;92.76
3444;BME280;1736;52.068;6.968;2024-03-02T05:26:28;99750.53;;;5.74;93.24
3444;BME280;1736;52.068;6.968;2024-03-02T05:28:55;99742.19;;;5.69;93.30
3444;BME280;1736;52.068;6.968;2024-03-02T05:31:23;99746.00;;;5.65;93.04
3444;BME280;1736;52.068;6.968;2024-03-02T05:33:49;99757.50;;;5.64;93.71
3444;BME280;1736;52.068;6.968;2024-03-02T05:36:16;99763.00;;;5.61;93.88
3444;BME280;1736;52.068;6.968;2024-03-02T05:38:42;99759.88;;;5.56;93.95
3444;BME280;1736;52.068;6.968;2024-03-02T05:41:09;99752.22;;;5.53;94.21
3444;BME280;1736;52.068;6.968;2024-03-02T05:43:36;99745.03;;;5.44;94.38
3444;BME280;1736;52.068;6.968;2024-03-02T05:46:03;99740.00;;;5.41;94.94
3444;BME280;1736;52.068;6.968;2024-03-02T05:48:31;99725.19;;;5.40;95.35
3444;BME280;1736;52.068;6.968;2024-03-02T05:50:57;99732.13;;;5.41;95.21
3444;BME280;1736;52.068;6.968;2024-03-02T05:53:24;99738.81;;;5.34;95.69
3444;BME280;1736;52.068;6.968;2024-03-02T05:55:51;99726.13;;;5.28;95.93
3444;BME280;1736;52.068;6.968;2024-03-02T05:58:21;99746.34;;;5.27;95.73
3444;BME280;1736;52.068;6.968;2024-03-02T06:00:59;99749.06;;;5.26;96.48
3444;BME280;1736;52.068;6.968;2024-03-02T06:03:25;99737.13;;;5.22;96.45
3444;BME280;1736;52.068;6.968;2024-03-02T06:05:54;99753.16;;;5.19;96.73
3444;BME280;1736;52.068;6.968;2024-03-02T06:08:21;99761.41;;;5.25;97.25
3444;BME280;1736;52.068;6.968;2024-03-02T06:10:47;99766.78;;;5.24;96.91
3444;BME280;1736;52.068;6.968;2024-03-02T06:13:14;99760.69;;;5.23;97.08
3444;BME280;1736;52.068;6.968;2024-03-02T06:15:41;99762.56;;;5.10;97.38
3444;BME280;1736;52.068;6.968;2024-03-02T06:18:08;99780.59;;;5.04;97.68
3444;BME280;1736;52.068;6.968;2024-03-02T06:20:34;99772.94;;;5.01;97.74
3444;BME280;1736;52.068;6.968;2024-03-02T06:23:03;99764.34;;;4.99;97.88
3444;BME280;1736;52.068;6.968;2024-03-02T06:25:30;99780.22;;;4.97;98.42
3444;BME280;1736;52.068;6.968;2024-03-02T06:27:57;99825.06;;;5.07;98.13
3444;BME280;1736;52.068;6.968;2024-03-02T06:30:24;99804.97;;;5.06;98.47
3444;BME280;1736;52.068;6.968;2024-03-02T06:32:50;99804.47;;;5.01;98.24
3444;BME280;1736;52.068;6.968;2024-03-02T06:35:17;99807.97;;;5.01;98.49
3444;BME280;1736;52.068;6.968;2024-03-02T06:37:43;99808.28;;;4.97;98.86
3444;BME280;1736;52.068;6.968;2024-03-02T06:40:11;99813.78;;;4.94;98.84
3444;BME280;1736;52.068;6.968;2024-03-02T06:42:38;99823.56;;;4.92;99.00
3444;BME280;1736;52.068;6.968;2024-03-02T06:45:05;99821.91;;;4.91;99.57
3444;BME280;1736;52.068;6.968;2024-03-02T06:47:32;99833.34;;;4.90;99.78
3444;BME280;1736;52.068;6.968;2024-03-02T06:49:59;99828.84;;;4.92;99.91
3444;BME280;1736;52.068;6.968;2024-03-02T06:52:25;99828.84;;;4.92;100.00
3444;BME280;1736;52.068;6.968;2024-03-02T06:54:52;99835.75;;;4.93;100.00
3444;BME280;1736;52.068;6.968;2024-03-02T06:57:20;99830.72;;;4.90;100.00
3444;BME280;1736;52.068;6.968;2024-03-02T06:59:46;99819.16;;;4.92;100.00
3444;BME280;1736;52.068;6.968;2024-03-02T07:02:15;99811.88;;;4.96;100.00
3444;BME280;1736;52.068;6.968;2024-03-02T07:04:42;99821.81;;;5.03;100.00
3444;BME280;1736;52.068;6.968;2024-03-02T07:07:08;99827.97;;;5.15;100.00
3444;BME280;1736;52.068;6.968;2024-03-02T07:09:35;99838.50;;;5.26;100.00
3444;BME280;1736;52.068;6.968;2024-03-02T07:12:02;99843.59;;;5.40;100.00
3444;BME280;1736;52.068;6.968;2024-03-02T07:14:30;99841.56;;;5.54;99.93
3444;BME280;1736;52.068;6.968;2024-03-02T07:17:10;99843.28;;;5.67;100.00
3444;BME280;1736;52.068;6.968;2024-03-02T07:19:38;99843.16;;;5.79;99.60
3444;BME280;1736;52.068;6.968;2024-03-02T07:22:06;99845.81;;;5.90;98.99
3444;BME280;1736;52.068;6.968;2024-03-02T07:24:39;99860.09;;;5.99;99.13
3444;BME280;1736;52.068;6.968;2024-03-02T07:27:06;99861.25;;;6.06;98.22
3444;BME280;1736;52.068;6.968;2024-03-02T07:29:34;99864.75;;;6.17;98.04
3444;BME280;1736;52.068;6.968;2024-03-02T07:32:01;99864.88;;;6.27;97.61
3444;BME280;1736;52.068;6.968;2024-03-02T07:34:28;99861.75;;;6.44;96.58
3444;BME280;1736;52.068;6.968;2024-03-02T07:36:55;99880.00;;;6.67;96.45
3444;BME280;1736;52.068;6.968;2024-03-02T07:39:22;99881.66;;;6.90;95.27
3444;BME280;1736;52.068;6.968;2024-03-02T07:41:48;99886.84;;;7.12;94.61
3444;BME280;1736;52.068;6.968;2024-03-02T07:44:16;99883.91;;;7.26;92.90
3444;BME280;1736;52.068;6.968;2024-03-02T07:46:46;99884.13;;;7.55;91.50
3444;BME280;1736;52.068;6.968;2024-03-02T07:49:13;99880.56;;;7.65;90.03
3444;BME280;1736;52.068;6.968;2024-03-02T07:51:40;99882.84;;;7.70;89.22
3444;BME280;1736;52.068;6.968;2024-03-02T07:54:06;99872.19;;;7.81;88.45
3444;BME280;1736;52.068;6.968;2024-03-02T07:56:33;99873.22;;;7.89;87.07
3444;BME280;1736;52.068;6.968;2024-03-02T07:59:00;99876.28;;;7.94;86.70
3444;BME280;1736;52.068;6.968;2024-03-02T08:01:27;99886.66;;;8.07;85.67
3444;BME280;1736;52.068;6.968;2024-03-02T08:03:56;99888.97;;;8.21;85.25
3444;BME280;1736;52.068;6.968;2024-03-02T08:06:23;99885.69;;;8.38;85.10
3444;BME280;1736;52.068;6.968;2024-03-02T08:08:53;99901.03;;;8.44;84.46
3444;BME280;1736;52.068;6.968;2024-03-02T08:11:19;99889.09;;;8.49;83.71
3444;BME280;1736;52.068;6.968;2024-03-02T08:13:46;99894.38;;;8.49;83.23
3444;BME280;1736;52.068;6.968;2024-03-02T08:16:12;99908.84;;;8.45;82.93
3444;BME280;1736;52.068;6.968;2024-03-02T08:18:39;99901.59;;;8.47;83.07
3444;BME280;1736;52.068;6.968;2024-03-02T08:21:07;99903.63;;;8.64;82.82
3444;BME280;1736;52.068;6.968;2024-03-02T08:23:34;99900.13;;;8.64;82.54
3444;BME280;1736;52.068;6.968;2024-03-02T08:26:01;99910.47;;;8.76;82.29
3444;BME280;1736;52.068;6.968;2024-03-02T08:28:28;99902.56;;;8.86;82.18
3444;BME280;1736;52.068;6.968;2024-03-02T08:30:54;99894.38;;;8.98;81.83
3444;BME280;1736;52.068;6.968;2024-03-02T08:33:22;99919.16;;;8.97;81.75
3444;BME280;1736;52.068;6.968;2024-03-02T08:35:48;99901.75;;;9.04;81.13
3444;BME280;1736;52.068;6.968;2024-03-02T08:38:16;99909.56;;;9.15;80.74
3444;BME280;1736;52.068;6.968;2024-03-02T08:40:43;99918.63;;;9.22;80.33
3444;BME280;1736;52.068;6.968;2024-03-02T08:43:10;99926.88;;;9.38;79.87
3444;BME280;1736;52.068;6.968;2024-03-02T08:45:37;99908.34;;;9.38;79.78
3444;BME280;1736;52.068;6.968;2024-03-02T08:48:06;99908.03;;;9.41;79.90
3444;BME280;1736;52.068;6.968;2024-03-02T08:50:33;99904.56;;;9.50;79.64
3444;BME280;1736;52.068;6.968;2024-03-02T08:53:00;99917.38;;;9.55;79.70
3444;BME280;1736;52.068;6.968;2024-03-02T08:55:28;99914.59;;;9.66;79.20
3444;BME280;1736;52.068;6.968;2024-03-02T08:57:55;99909.97;;;9.68;78.92
3444;BME280;1736;52.068;6.968;2024-03-02T09:00:22;99901.75;;;9.71;78.75
3444;BME280;1736;52.068;6.968;2024-03-02T09:02:49;99900.06;;;9.89;77.70
3444;BME280;1736;52.068;6.968;2024-03-02T09:05:15;99909.22;;;9.94;77.49
3444;BME280;1736;52.068;6.968;2024-03-02T09:07:42;99925.84;;;9.96;77.15
3444;BME280;1736;52.068;6.968;2024-03-02T09:10:09;99918.03;;;10.14;76.68
3444;BME280;1736;52.068;6.968;2024-03-02T09:12:37;99945.47;;;10.22;76.43
3444;BME280;1736;52.068;6.968;2024-03-02T09:15:05;99921.72;;;10.30;76.30
3444;BME280;1736;52.068;6.968;2024-03-02T09:17:32;99903.88;;;10.32;75.53
3444;BME280;1736;52.068;6.968;2024-03-02T09:19:58;99915.56;;;10.39;75.17
3444;BME280;1736;52.068;6.968;2024-03-02T09:22:25;99910.75;;;10.52;74.72
3444;BME280;1736;52.068;6.968;2024-03-02T09:24:51;100050.09;;;10.57;74.70
3444;BME280;1736;52.068;6.968;2024-03-02T09:27:18;100085.28;;;10.49;74.28
3444;BME280;1736;52.068;6.968;2024-03-02T09:29:46;100032.53;;;10.46;73.54
3444;BME280;1736;52.068;6.968;2024-03-02T09:32:13;100061.25;;;10.50;73.47
3444;BME280;1736;52.068;6.968;2024-03-02T09:34:40;100126.31;;;10.64;73.23
3444;BME280;1736;52.068;6.968;2024-03-02T09:37:06;100082.72;;;10.67;72.80
3444;BME280;1736;52.068;6.968;2024-03-02T09:39:33;100028.25;;;10.72;72.92
3444;BME280;1736;52.068;6.968;2024-03-02T09:42:00;100044.16;;;10.82;72.45
3444;BME280;1736;52.068;6.968;2024-03-02T09:44:27;99989.41;;;10.81;71.50
3444;BME280;1736;52.068;6.968;2024-03-02T09:46:55;99959.13;;;11.01;71.69
3444;BME280;1736;52.068;6.968;2024-03-02T09:49:22;99952.44;;;10.97;70.41
3444;BME280;1736;52.068;6.968;2024-03-02T09:51:49;99944.53;;;10.87;70.23
3444;BME280;1736;52.068;6.968;2024-03-02T09:54:16;99906.53;;;10.87;70.03
3444;BME280;1736;52.068;6.968;2024-03-02T09:56:43;99902.00;;;10.97;69.84
3444;BME280;1736;52.068;6.968;2024-03-02T09:59:10;99887.03;;;10.96;69.97
3444;BME280;1736;52.068;6.968;2024-03-02T10:01:37;99904.19;;;11.01;71.18
3444;BME280;1736;52.068;6.968;2024-03-02T10:04:05;99898.22;;;10.99;70.90
3444;BME280;1736;52.068;6.968;2024-03-02T10:06:31;99907.69;;;11.02;70.77
3444;BME280;1736;52.068;6.968;2024-03-02T10:08:58;99919.59;;;10.98;71.02
3444;BME280;1736;52.068;6.968;2024-03-02T10:11:28;99894.72;;;10.99;70.61
3444;BME280;1736;52.068;6.968;2024-03-02T10:14:04;99905.63;;;10.96;70.76
3444;BME280;1736;52.068;6.968;2024-03-02T10:16:34;99899.59;;;11.03;70.58
3444;BME280;1736;52.068;6.968;2024-03-02T10:19:15;99910.16;;;11.13;69.77
3444;BME280;1736;52.068;6.968;2024-03-02T10:21:41;99911.53;;;11.17;69.72
3444;BME280;1736;52.068;6.968;2024-03-02T10:24:08;99897.03;;;11.11;69.80
3444;BME280;1736;52.068;6.968;2024-03-02T10:26:35;99897.34;;;11.26;70.21
3444;BME280;1736;52.068;6.968;2024-03-02T10:29:02;99888.59;;;11.16;69.92
3444;BME280;1736;52.068;6.968;2024-03-02T10:31:29;99902.34;;;11.11;70.04
3444;BME280;1736;52.068;6.968;2024-03-02T10:33:57;99889.72;;;11.13;69.81
3444;BME280;1736;52.068;6.968;2024-03-02T10:36:25;99893.91;;;11.16;69.38
3444;BME280;1736;52.068;6.968;2024-03-02T10:38:52;99910.22;;;11.21;68.98
3444;BME280;1736;52.068;6.968;2024-03-02T10:41:23;99875.84;;;11.37;68.59
3444;BME280;1736;52.068;6.968;2024-03-02T10:43:51;99887.38;;;11.28;68.67
3444;BME280;1736;52.068;6.968;2024-03-02T10:46:21;99887.94;;;11.31;68.90
3444;BME280;1736;52.068;6.968;2024-03-02T10:48:49;99879.47;;;11.36;68.67
3444;BME280;1736;52.068;6.968;2024-03-02T10:51:15;99904.16;;;11.28;68.73
3444;BME280;1736;52.068;6.968;2024-03-02T10:53:43;99881.00;;;11.38;68.16
3444;BME280;1736;52.068;6.968;2024-03-02T10:56:16;99883.06;;;11.44;68.22
3444;BME280;1736;52.068;6.968;2024-03-02T10:58:51;99900.88;;;11.52;67.71
3444;BME280;1736;52.068;6.968;2024-03-02T11:01:22;99872.66;;;11.51;67.34
3444;BME280;1736;52.068;6.968;2024-03-02T11:03:49;99875.47;;;11.49;66.97
3444;BME280;1736;52.068;6.968;2024-03-02T11:06:16;99869.28;;;11.49;68.15
3444;BME280;1736;52.068;6.968;2024-03-02T11:08:47;99883.66;;;11.56;67.45
3444;BME280;1736;52.068;6.968;2024-03-02T11:11:19;99870.34;;;11.56;66.85
3444;BME280;1736;52.068;6.968;2024-03-02T11:13:49;99856.94;;;11.57;66.56
3444;BME280;1736;52.068;6.968;2024-03-02T11:16:25;99872.81;;;11.67;66.92
3444;BME280;1736;52.068;6.968;2024-03-02T11:18:55;99848.91;;;11.67;66.20
3444;BME280;1736;52.068;6.968;2024-03-02T11:21:24;99864.69;;;11.68;66.48
3444;BME280;1736;52.068;6.968;2024-03-02T11:23:52;99877.03;;;11.77;65.88
3444;BME280;1736;52.068;6.968;2024-03-02T11:26:21;99891.06;;;11.87;65.26
3444;BME280;1736;52.068;6.968;2024-03-02T11:28:49;99866.09;;;11.80;65.34
3444;BME280;1736;52.068;6.968;2024-03-02T11:31:15;99889.88;;;11.82;64.46
3444;BME280;1736;52.068;6.968;2024-03-02T11:33:42;99855.44;;;12.06;63.93
3444;BME280;1736;52.068;6.968;2024-03-02T11:36:09;99886.91;;;12.10;64.82
3444;BME280;1736;52.068;6.968;2024-03-02T11:38:36;99860.72;;;11.98;63.36
3444;BME280;1736;52.068;6.968;2024-03-02T11:41:06;99862.03;;;11.94;63.39
3444;BME280;1736;52.068;6.968;2024-03-02T11:43:37;99853.22;;;11.93;64.36
3444;BME280;1736;52.068;6.968;2024-03-02T11:46:05;99865.06;;;11.99;63.10
3444;BME280;1736;52.068;6.968;2024-03-02T11:48:35;99835.44;;;11.94;62.92
3444;BME280;1736;52.068;6.968;2024-03-02T11:51:02;99866.03;;;11.98;63.16
3444;BME280;1736;52.068;6.968;2024-03-02T11:53:30;99844.66;;;12.07;63.34
3444;BME280;1736;52.068;6.968;2024-03-02T11:55:57;99847.06;;;12.18;63.83
3444;BME280;1736;52.068;6.968;2024-03-02T11:58:26;99838.31;;;12.34;63.89
3444;BME280;1736;52.068;6.968;2024-03-02T12:00:54;99847.72;;;12.20;63.80
3444;BME280;1736;52.068;6.968;2024-03-02T12:03:22;99828.91;;;12.14;63.01
3444;BME280;1736;52.068;6.968;2024-03-02T12:05:50;99863.22;;;12.25;63.11
3444;BME280;1736;52.068;6.968;2024-03-02T12:08:17;99828.41;;;12.44;62.10
3444;BME280;1736;52.068;6.968;2024-03-02T12:10:55;99835.25;;;12.21;61.90
3444;BME280;1736;52.068;6.968;2024-03-02T12:13:22;99813.19;;;12.28;61.27
3444;BME280;1736;52.068;6.968;2024-03-02T12:15:53;99833.66;;;12.28;61.68
3444;BME280;1736;52.068;6.968;2024-03-02T12:18:20;99808.41;;;12.40;61.88
3444;BME280;1736;52.068;6.968;2024-03-02T12:20:48;99820.88;;;12.39;60.67
3444;BME280;1736;52.068;6.968;2024-03-02T12:23:15;99809.78;;;12.44;60.57
3444;BME280;1736;52.068;6.968;2024-03-02T12:25:42;99840.19;;;12.41;61.15
3444;BME280;1736;52.068;6.968;2024-03-02T12:28:09;99807.56;;;12.39;60.75
3444;BME280;1736;52.068;6.968;2024-03-02T12:30:36;99810.38;;;12.30;61.61
3444;BME280;1736;52.068;6.968;2024-03-02T12:33:04;99820.88;;;12.39;61.41
3444;BME280;1736;52.068;6.968;2024-03-02T12:35:31;99802.41;;;12.38;61.38
3444;BME280;1736;52.068;6.968;2024-03-02T12:37:58;99829.75;;;12.48;62.30
3444;BME280;1736;52.068;6.968;2024-03-02T12:40:24;99824.59;;;12.54;61.60
3444;BME280;1736;52.068;6.968;2024-03-02T12:42:52;99813.13;;;12.54;61.63
3444;BME280;1736;52.068;6.968;2024-03-02T12:45:19;99794.81;;;12.51;62.42
3444;BME280;1736;52.068;6.968;2024-03-02T12:47:49;99795.81;;;12.58;62.11
3444;BME280;1736;52.068;6.968;2024-03-02T12:50:18;99808.31;;;12.57;62.37
3444;BME280;1736;52.068;6.968;2024-03-02T12:52:51;99799.34;;;12.58;62.21
3444;BME280;1736;52.068;6.968;2024-03-02T12:55:17;99805.50;;;12.67;61.10
3444;BME280;1736;52.068;6.968;2024-03-02T12:57:44;99789.19;;;12.70;61.27
3444;BME280;1736;52.068;6.968;2024-03-02T13:00:11;99797.34;;;12.68;60.96
3444;BME280;1736;52.068;6.968;2024-03-02T13:02:40;99794.72;;;12.76;60.93
3444;BME280;1736;52.068;6.968;2024-03-02T13:05:08;99782.25;;;12.85;61.34
3444;BME280;1736;52.068;6.968;2024-03-02T13:07:38;99823.88;;;12.94;60.57
3444;BME280;1736;52.068;6.968;2024-03-02T13:10:05;99781.47;;;13.00;60.08
3444;BME280;1736;52.068;6.968;2024-03-02T13:12:32;99789.97;;;13.28;59.68
3444;BME280;1736;52.068;6.968;2024-03-02T13:14:59;99797.13;;;13.35;59.80
3444;BME280;1736;52.068;6.968;2024-03-02T13:17:27;99775.66;;;13.29;58.82
3444;BME280;1736;52.068;6.968;2024-03-02T13:19:55;99799.63;;;13.45;59.68
3444;BME280;1736;52.068;6.968;2024-03-02T13:22:22;99790.09;;;13.58;59.97
3444;BME280;1736;52.068;6.968;2024-03-02T13:24:50;99765.63;;;13.55;58.82
3444;BME280;1736;52.068;6.968;2024-03-02T13:27:18;99765.63;;;13.55;58.67
3444;BME280;1736;52.068;6.968;2024-03-02T13:29:45;99763.63;;;13.57;58.93
3444;BME280;1736;52.068;6.968;2024-03-02T13:32:13;99801.59;;;13.67;58.22